createdAt,value
2019-05-19T00:00:07.773Z,84.03
2019-05-19T00:02:41.348Z,84.13
2019-05-19T00:05:14.261Z,84.77
2019-05-19T00:07:46.430Z,83.77
2019-05-19T00:10:18.633Z,80.43
2019-05-19T00:12:50.340Z,82.43
2019-05-19T00:15:24.475Z,86.30
2019-05-19T00:17:56.539Z,80.23
2019-05-19T00:20:28.181Z,75.80
2019-05-19T00:23:02.184Z,81.00
2019-05-19T00:25:34.659Z,84.23
2019-05-19T00:28:07.768Z,78.20
2019-05-19T00:30:41.814Z,83.40
2019-05-19T00:33:15.361Z,77.03
2019-05-19T00:35:48.431Z,84.27
2019-05-19T00:38:21.243Z,81.17
2019-05-19T00:40:55.067Z,82.50
2019-05-19T00:43:28.272Z,80.53
2019-05-19T00:46:01.993Z,78.87
2019-05-19T00:48:34.339Z,82.63
2019-05-19T00:51:06.707Z,81.37
2019-05-19T00:53:38.890Z,77.63
2019-05-19T00:56:11.287Z,74.40
2019-05-19T00:58:44.555Z,74.53
2019-05-19T01:01:16.349Z,72.03
2019-05-19T01:03:48.871Z,74.40
2019-05-19T01:06:20.826Z,79.73
2019-05-19T01:08:52.580Z,73.70
2019-05-19T01:11:24.064Z,83.03
2019-05-19T01:13:55.858Z,71.53
2019-05-19T01:16:27.876Z,84.70
2019-05-19T01:18:59.485Z,74.03
2019-05-19T01:21:32.987Z,77.77
2019-05-19T01:24:05.470Z,80.43
2019-05-19T01:26:37.418Z,77.63
2019-05-19T01:29:09.617Z,74.83
2019-05-19T01:31:41.668Z,79.07
2019-05-19T01:34:15.286Z,78.83
2019-05-19T01:36:47.136Z,81.13
2019-05-19T01:39:19.368Z,85.63
2019-05-19T01:41:52.070Z,82.60
2019-05-19T01:44:24.323Z,88.13
2019-05-19T01:47:00.121Z,80.83
2019-05-19T01:49:32.848Z,87.37
2019-05-19T01:52:05.776Z,86.73
2019-05-19T01:54:38.417Z,90.97
2019-05-19T01:57:10.556Z,90.30
2019-05-19T01:59:42.672Z,86.50
2019-05-19T02:02:15.589Z,89.50
2019-05-19T02:04:47.434Z,86.80
2019-05-19T02:07:21.062Z,90.57
2019-05-19T02:09:54.744Z,90.50
2019-05-19T02:12:27.466Z,95.07
2019-05-19T02:14:59.166Z,93.50
2019-05-19T02:17:33.362Z,100.10
2019-05-19T02:20:06.593Z,92.17
2019-05-19T02:22:38.818Z,96.93
2019-05-19T02:25:14.823Z,96.77
2019-05-19T02:27:49.713Z,99.10
2019-05-19T02:30:22.430Z,89.70
2019-05-19T02:32:54.625Z,100.17
2019-05-19T02:35:28.226Z,104.43
2019-05-19T02:38:02.366Z,112.47
2019-05-19T02:40:36.989Z,110.87
2019-05-19T02:43:09.955Z,111.63
2019-05-19T02:45:43.736Z,118.90
2019-05-19T02:48:18.453Z,120.37
2019-05-19T02:50:53.516Z,132.10
2019-05-19T02:53:26.995Z,129.93
2019-05-19T02:56:01.225Z,129.63
2019-05-19T02:58:35.057Z,140.20
2019-05-19T03:01:07.562Z,149.93
2019-05-19T03:03:39.838Z,146.30
2019-05-19T03:06:11.622Z,146.47
2019-05-19T03:08:44.014Z,146.63
2019-05-19T03:11:16.444Z,157.37
2019-05-19T03:13:52.187Z,157.33
2019-05-19T03:16:24.941Z,159.27
2019-05-19T03:18:57.274Z,161.13
2019-05-19T03:21:29.659Z,158.87
2019-05-19T03:24:02.026Z,156.43
2019-05-19T03:26:35.191Z,156.57
2019-05-19T03:29:15.842Z,159.80
2019-05-19T03:32:22.133Z,161.83
2019-05-19T03:34:56.303Z,159.53
2019-05-19T03:37:29.356Z,149.20
2019-05-19T03:40:03.245Z,149.67
2019-05-19T03:42:35.133Z,150.97
2019-05-19T03:45:07.346Z,149.43
2019-05-19T03:47:39.795Z,153.13
2019-05-19T03:50:12.571Z,146.83
2019-05-19T03:52:44.501Z,142.50
2019-05-19T03:55:17.463Z,151.83
2019-05-19T03:57:49.447Z,143.50
2019-05-19T04:00:21.792Z,144.63
2019-05-19T04:02:54.402Z,140.93
2019-05-19T04:05:26.436Z,146.27
2019-05-19T04:07:59.230Z,144.37
2019-05-19T04:10:30.906Z,150.03
2019-05-19T04:13:03.348Z,147.53
2019-05-19T04:15:35.636Z,141.13
2019-05-19T04:18:07.690Z,147.57
2019-05-19T04:20:40.269Z,137.17
2019-05-19T04:23:12.308Z,142.93
2019-05-19T04:25:44.628Z,142.03
2019-05-19T04:28:16.908Z,134.80
2019-05-19T04:30:49.578Z,135.03
2019-05-19T04:33:21.359Z,136.20
2019-05-19T04:35:57.607Z,132.30
2019-05-19T04:38:29.984Z,131.40
2019-05-19T04:41:02.844Z,126.57
2019-05-19T04:43:35.057Z,123.73
2019-05-19T04:46:07.470Z,139.77
2019-05-19T04:48:39.797Z,119.23
2019-05-19T04:51:11.936Z,119.23
2019-05-19T04:53:45.727Z,122.07
2019-05-19T04:56:19.807Z,116.97
2019-05-19T04:58:51.200Z,126.27
2019-05-19T05:01:23.563Z,119.53
2019-05-19T05:03:55.817Z,115.77
2019-05-19T05:06:27.741Z,110.80
2019-05-19T05:09:00.784Z,116.07
2019-05-19T05:11:32.980Z,119.97
2019-05-19T05:14:08.259Z,114.93
2019-05-19T05:16:40.324Z,116.73
2019-05-19T05:19:12.568Z,122.50
2019-05-19T05:21:44.906Z,113.17
2019-05-19T05:24:17.017Z,113.03
2019-05-19T05:26:48.893Z,116.40
2019-05-19T05:29:21.534Z,115.20
2019-05-19T05:31:54.878Z,103.97
2019-05-19T05:34:27.950Z,111.70
2019-05-19T05:37:00.892Z,98.90
2019-05-19T05:39:33.210Z,102.13
2019-05-19T05:42:05.307Z,95.07
2019-05-19T05:44:37.709Z,97.47
2019-05-19T05:47:10.966Z,95.20
2019-05-19T05:49:43.206Z,91.57
2019-05-19T05:52:15.700Z,89.93
2019-05-19T05:54:48.245Z,92.37
2019-05-19T05:57:21.317Z,85.43
2019-05-19T05:59:54.678Z,84.83
2019-05-19T06:02:28.368Z,81.10
2019-05-19T06:05:00.487Z,76.90
2019-05-19T06:07:32.502Z,82.57
2019-05-19T06:10:06.239Z,77.10
2019-05-19T06:12:41.202Z,71.73
2019-05-19T06:15:14.294Z,72.90
2019-05-19T06:17:48.234Z,74.77
2019-05-19T06:20:20.807Z,74.67
2019-05-19T06:22:56.952Z,71.40
2019-05-19T06:25:27.671Z,72.20
2019-05-19T06:28:03.437Z,76.40
2019-05-19T06:30:35.587Z,74.80
2019-05-19T06:33:08.305Z,73.63
2019-05-19T06:35:41.219Z,72.37
2019-05-19T06:38:17.446Z,72.97
2019-05-19T06:40:49.969Z,73.80
2019-05-19T06:43:22.510Z,71.80
2019-05-19T06:45:54.619Z,72.23
2019-05-19T06:48:27.402Z,68.90
2019-05-19T06:50:59.682Z,75.23
2019-05-19T06:53:32.988Z,73.47
2019-05-19T06:56:05.141Z,68.10
2019-05-19T06:58:38.215Z,74.10
2019-05-19T07:01:10.417Z,72.03
2019-05-19T07:03:42.568Z,65.40
2019-05-19T07:06:15.745Z,70.30
2019-05-19T07:08:49.881Z,66.23
2019-05-19T07:11:22.068Z,68.17
2019-05-19T07:13:54.020Z,64.97
2019-05-19T07:16:27.684Z,65.47
2019-05-19T07:19:00.566Z,66.10
2019-05-19T07:21:35.618Z,67.47
2019-05-19T07:24:08.878Z,64.27
2019-05-19T07:26:41.130Z,70.13
2019-05-19T07:29:13.345Z,60.77
2019-05-19T07:31:47.094Z,64.27
2019-05-19T07:34:19.723Z,63.00
2019-05-19T07:36:51.977Z,59.17
2019-05-19T07:39:23.756Z,61.20
2019-05-19T07:41:56.535Z,63.77
2019-05-19T07:44:28.843Z,58.17
2019-05-19T07:47:01.337Z,57.80
2019-05-19T07:49:33.689Z,59.70
2019-05-19T07:52:06.412Z,56.73
2019-05-19T07:54:38.183Z,54.63
2019-05-19T07:57:11.754Z,55.50
2019-05-19T07:59:43.639Z,54.97
2019-05-19T08:02:15.445Z,55.40
2019-05-19T08:04:49.014Z,55.23
2019-05-19T08:07:22.578Z,53.63
2019-05-19T08:09:57.038Z,55.97
2019-05-19T08:12:30.178Z,55.07
2019-05-19T08:15:02.829Z,54.60
2019-05-19T08:17:35.707Z,54.03
2019-05-19T08:20:10.508Z,55.67
2019-05-19T08:22:44.521Z,55.23
2019-05-19T08:25:17.674Z,53.17
2019-05-19T08:27:49.983Z,60.80
2019-05-19T08:30:23.314Z,55.13
2019-05-19T08:32:56.041Z,57.07
2019-05-19T08:35:28.140Z,57.37
2019-05-19T08:38:03.191Z,55.60
2019-05-19T08:40:37.037Z,51.10
2019-05-19T08:43:09.602Z,52.37
2019-05-19T08:45:42.422Z,53.63
2019-05-19T08:48:14.789Z,55.63
2019-05-19T08:50:47.156Z,56.13
2019-05-19T08:53:19.224Z,63.20
2019-05-19T08:55:51.984Z,54.10
2019-05-19T08:58:24.696Z,62.03
2019-05-19T09:00:56.919Z,57.40
2019-05-19T09:03:30.134Z,56.37
2019-05-19T09:06:03.115Z,57.83
2019-05-19T09:08:35.912Z,58.00
2019-05-19T09:11:07.898Z,54.43
2019-05-19T09:13:43.903Z,54.07
2019-05-19T09:16:19.703Z,51.87
2019-05-19T09:18:51.757Z,60.40
2019-05-19T09:21:25.036Z,54.97
2019-05-19T09:23:57.593Z,48.97
2019-05-19T09:26:31.242Z,53.60
2019-05-19T09:29:03.432Z,51.13
2019-05-19T09:31:35.595Z,49.67
2019-05-19T09:34:12.095Z,46.83
2019-05-19T09:36:44.584Z,44.40
2019-05-19T09:39:16.867Z,43.20
2019-05-19T09:41:49.709Z,42.47
2019-05-19T09:44:23.379Z,41.77
2019-05-19T09:46:57.745Z,39.77
2019-05-19T09:49:33.015Z,39.53
2019-05-19T09:52:08.988Z,39.10
2019-05-19T09:54:45.623Z,38.63
2019-05-19T09:57:16.916Z,40.83
2019-05-19T09:59:48.754Z,35.57
2019-05-19T10:02:21.793Z,40.60
2019-05-19T10:04:54.792Z,37.13
2019-05-19T10:07:29.571Z,38.40
2019-05-19T10:10:03.221Z,39.07
2019-05-19T10:12:35.634Z,36.77
2019-05-19T10:15:08.539Z,36.77
2019-05-19T10:17:41.044Z,35.20
2019-05-19T10:20:14.802Z,35.90
2019-05-19T10:22:46.897Z,34.10
2019-05-19T10:25:22.576Z,37.60
2019-05-19T10:27:55.865Z,35.83
2019-05-19T10:30:27.750Z,33.60
2019-05-19T10:33:00.014Z,33.10
2019-05-19T10:35:32.264Z,34.50
2019-05-19T10:38:04.612Z,35.83
2019-05-19T10:40:36.773Z,33.40
2019-05-19T10:43:08.654Z,37.23
2019-05-19T10:45:41.125Z,33.33
2019-05-19T10:48:13.350Z,31.47
2019-05-19T10:50:45.865Z,34.47
2019-05-19T10:53:18.087Z,35.40
2019-05-19T10:55:54.638Z,31.50
2019-05-19T10:58:27.163Z,32.60
2019-05-19T11:00:59.744Z,32.33
2019-05-19T11:03:31.817Z,34.23
2019-05-19T11:06:04.015Z,32.93
2019-05-19T11:08:36.097Z,33.27
2019-05-19T11:11:08.506Z,33.20
2019-05-19T11:13:40.885Z,31.00
2019-05-19T11:16:12.745Z,32.13
2019-05-19T11:18:45.683Z,31.87
2019-05-19T11:21:18.140Z,32.10
2019-05-19T11:23:50.014Z,31.87
2019-05-19T11:26:24.834Z,34.43
2019-05-19T11:28:57.074Z,34.23
2019-05-19T11:31:28.968Z,34.70
2019-05-19T11:34:00.937Z,32.60
2019-05-19T11:36:34.140Z,32.30
2019-05-19T11:39:08.244Z,33.47
2019-05-19T11:41:40.954Z,32.97
2019-05-19T11:44:12.952Z,34.20
2019-05-19T11:46:45.466Z,35.70
2019-05-19T11:49:17.567Z,32.23
2019-05-19T11:51:49.912Z,36.17
2019-05-19T11:54:22.243Z,37.40
2019-05-19T11:56:55.380Z,37.07
2019-05-19T11:59:27.590Z,40.73
2019-05-19T12:02:01.275Z,39.60
2019-05-19T12:04:33.673Z,37.93
2019-05-19T12:07:06.037Z,39.90
2019-05-19T12:09:38.777Z,39.70
2019-05-19T12:12:11.244Z,42.17
2019-05-19T12:14:44.017Z,41.50
2019-05-19T12:17:16.218Z,44.90
2019-05-19T12:19:48.432Z,40.67
2019-05-19T12:22:22.334Z,35.57
2019-05-19T12:24:55.087Z,38.30
2019-05-19T12:27:27.549Z,37.30
2019-05-19T12:29:59.327Z,37.97
2019-05-19T12:32:31.756Z,36.33
2019-05-19T12:35:04.237Z,36.10
2019-05-19T12:37:36.272Z,33.13
2019-05-19T12:43:19.244Z,35.83
2019-05-19T12:45:51.295Z,36.03
2019-05-19T12:48:23.194Z,41.33
2019-05-19T12:50:55.462Z,35.00
2019-05-19T12:53:31.405Z,36.67
2019-05-19T12:56:03.387Z,35.97
2019-05-19T12:58:35.630Z,34.20
2019-05-19T13:01:07.896Z,33.17
2019-05-19T13:03:40.280Z,34.83
2019-05-19T13:06:12.948Z,38.67
2019-05-19T13:08:45.838Z,31.13
2019-05-19T13:11:20.723Z,36.07
2019-05-19T13:13:52.580Z,30.17
2019-05-19T13:16:24.604Z,30.37
2019-05-19T13:18:56.833Z,32.03
2019-05-19T13:21:29.199Z,32.90
2019-05-19T13:24:01.241Z,30.23
2019-05-19T13:26:34.005Z,32.07
2019-05-19T13:29:09.117Z,31.30
2019-05-19T13:31:41.218Z,34.50
2019-05-19T13:34:13.640Z,34.17
2019-05-19T13:36:46.140Z,31.70
2019-05-19T13:39:18.114Z,40.37
2019-05-19T13:41:50.887Z,29.33
2019-05-19T13:44:22.864Z,33.50
2019-05-19T13:46:55.007Z,35.73
2019-05-19T13:49:27.091Z,34.07
2019-05-19T13:51:59.382Z,37.57
2019-05-19T13:54:31.456Z,35.63
2019-05-19T14:00:19.656Z,35.57
2019-05-19T14:02:51.559Z,37.27
2019-05-19T14:05:23.630Z,34.57
2019-05-19T14:07:55.800Z,40.00
2019-05-19T14:10:28.102Z,36.33
2019-05-19T14:13:00.049Z,36.00
2019-05-19T14:15:32.473Z,39.90
2019-05-19T14:18:04.431Z,38.53
2019-05-19T14:20:39.567Z,38.23
2019-05-19T14:23:12.901Z,37.47
2019-05-19T14:25:44.752Z,34.67
2019-05-19T14:28:16.806Z,38.00
2019-05-19T14:30:49.375Z,37.47
2019-05-19T14:33:22.088Z,41.00
2019-05-19T14:35:54.330Z,37.93
2019-05-19T14:38:27.751Z,39.50
2019-05-19T14:41:00.793Z,39.40
2019-05-19T14:43:32.937Z,39.33
2019-05-19T14:46:04.974Z,41.90
2019-05-19T14:48:37.279Z,39.40
2019-05-19T14:51:09.990Z,39.47
2019-05-19T14:53:42.113Z,39.60
2019-05-19T14:56:13.869Z,40.07
2019-05-19T14:58:48.822Z,38.00
2019-05-19T15:01:27.144Z,40.03
2019-05-19T15:03:59.867Z,37.60
2019-05-19T15:06:32.360Z,39.57
2019-05-19T15:09:05.942Z,39.83
2019-05-19T15:11:38.216Z,43.40
2019-05-19T15:14:12.156Z,43.63
2019-05-19T15:16:45.254Z,44.60
2019-05-19T15:19:17.321Z,43.77
2019-05-19T15:21:50.718Z,38.20
2019-05-19T15:24:24.659Z,38.07
2019-05-19T15:27:00.317Z,38.33
2019-05-19T15:29:34.796Z,39.47
2019-05-19T15:32:08.999Z,37.33
2019-05-19T15:34:43.262Z,36.10
2019-05-19T15:37:17.759Z,38.83
2019-05-19T15:39:51.932Z,38.70
2019-05-19T15:42:24.366Z,35.33
2019-05-19T15:44:56.752Z,38.67
2019-05-19T15:47:29.413Z,34.23
2019-05-19T15:50:05.775Z,35.00
2019-05-19T15:52:47.018Z,32.23
2019-05-19T15:55:24.681Z,33.60
2019-05-19T15:57:58.446Z,29.40
2019-05-19T16:00:31.757Z,28.43
2019-05-19T16:03:04.507Z,27.60
2019-05-19T16:05:40.007Z,27.67
2019-05-19T16:08:13.039Z,27.37
2019-05-19T16:10:46.463Z,26.93
2019-05-19T16:13:21.933Z,28.70
2019-05-19T16:15:56.651Z,27.77
2019-05-19T16:18:29.015Z,31.33
2019-05-19T16:21:02.676Z,27.83
2019-05-19T16:23:35.929Z,27.70
2019-05-19T16:26:08.239Z,27.10
2019-05-19T16:28:40.735Z,30.80
2019-05-19T16:31:14.627Z,28.93
2019-05-19T16:33:48.120Z,24.83
2019-05-19T16:36:21.169Z,26.03
2019-05-19T16:38:53.423Z,24.13
2019-05-19T16:41:26.633Z,22.57
2019-05-19T16:43:59.609Z,27.00
2019-05-19T16:46:31.889Z,23.80
2019-05-19T16:49:04.051Z,21.83
2019-05-19T16:51:36.198Z,24.50
2019-05-19T16:54:12.354Z,24.20
2019-05-19T16:56:44.340Z,21.07
2019-05-19T16:59:25.393Z,21.73
2019-05-19T17:01:58.467Z,24.93
2019-05-19T17:04:31.702Z,22.77
2019-05-19T17:07:05.442Z,23.33
2019-05-19T17:09:38.170Z,23.50
2019-05-19T17:12:16.490Z,22.33
2019-05-19T17:14:49.354Z,23.80
2019-05-19T17:17:21.925Z,23.83
2019-05-19T17:19:55.478Z,23.03
2019-05-19T17:22:29.075Z,27.23
2019-05-19T17:25:01.046Z,28.17
2019-05-19T17:27:33.784Z,22.57
2019-05-19T17:30:07.130Z,21.80
2019-05-19T17:32:39.332Z,20.87
2019-05-19T17:35:13.409Z,21.63
2019-05-19T17:37:45.614Z,21.33
2019-05-19T17:40:19.314Z,22.57
2019-05-19T17:42:51.726Z,24.60
2019-05-19T17:45:24.021Z,23.27
2019-05-19T17:48:09.088Z,24.17
2019-05-19T17:50:33.834Z,24.97
2019-05-19T17:53:06.887Z,26.53
2019-05-19T17:55:41.103Z,30.23
2019-05-19T17:58:13.872Z,28.37
2019-05-19T18:00:45.751Z,28.97
2019-05-19T18:03:18.560Z,28.20
2019-05-19T18:05:50.560Z,27.53
2019-05-19T18:08:22.950Z,27.07
2019-05-19T18:10:55.859Z,30.47
2019-05-19T18:13:28.278Z,28.17
2019-05-19T18:16:00.476Z,31.03
2019-05-19T18:18:32.786Z,32.53
2019-05-19T18:24:15.605Z,31.53
2019-05-19T18:26:48.020Z,34.83
2019-05-19T18:29:30.970Z,38.83
2019-05-19T18:31:54.799Z,40.23
2019-05-19T18:34:27.695Z,39.67
2019-05-19T18:37:02.772Z,35.77
2019-05-19T18:39:34.931Z,35.10
2019-05-19T18:42:07.805Z,37.40
2019-05-19T18:44:44.822Z,37.10
2019-05-19T18:47:19.703Z,43.30
2019-05-19T18:49:52.333Z,42.07
2019-05-19T18:52:24.495Z,42.67
2019-05-19T18:55:01.496Z,45.80
2019-05-19T18:57:34.031Z,39.37
2019-05-19T19:00:06.702Z,49.23
2019-05-19T19:02:41.672Z,48.17
2019-05-19T19:05:13.560Z,48.40
2019-05-19T19:07:53.543Z,53.87
2019-05-19T19:10:29.602Z,53.60
2019-05-19T19:13:02.718Z,51.40
2019-05-19T19:15:35.087Z,54.00
2019-05-19T19:18:07.161Z,57.00
2019-05-19T19:20:39.723Z,56.00
2019-05-19T19:23:11.629Z,59.43
2019-05-19T19:25:43.798Z,57.47
2019-05-19T19:28:16.408Z,52.93
2019-05-19T19:30:53.297Z,64.73
2019-05-19T19:33:25.703Z,58.47
2019-05-19T19:35:58.820Z,61.13
2019-05-19T19:38:31.504Z,70.13
2019-05-19T19:41:04.512Z,65.00
2019-05-19T19:43:38.345Z,66.87
2019-05-19T19:46:10.528Z,74.60
2019-05-19T19:48:46.707Z,77.60
2019-05-19T19:51:19.628Z,78.17
2019-05-19T19:53:52.983Z,79.87
2019-05-19T19:56:26.734Z,90.53
2019-05-19T19:59:01.419Z,91.20
2019-05-19T20:01:34.122Z,87.07
2019-05-19T20:04:05.870Z,89.07
2019-05-19T20:06:40.453Z,95.00
2019-05-19T20:09:12.377Z,96.37
2019-05-19T20:11:44.544Z,106.13
2019-05-19T20:15:05.534Z,92.83
2019-05-19T20:17:46.741Z,104.17
2019-05-19T20:20:24.216Z,103.63
2019-05-19T20:22:56.581Z,108.23
2019-05-19T20:25:28.396Z,101.33
2019-05-19T20:28:08.500Z,111.83
2019-05-19T20:30:44.972Z,102.97
2019-05-19T20:33:18.658Z,106.73
2019-05-19T20:35:52.417Z,104.67
2019-05-19T20:38:30.223Z,106.57
2019-05-19T20:41:02.547Z,117.60
2019-05-19T20:43:51.067Z,111.27
2019-05-19T20:46:47.103Z,115.47
2019-05-19T20:49:21.904Z,114.20
2019-05-19T20:52:09.720Z,106.10
2019-05-19T20:54:44.587Z,102.20
2019-05-19T20:57:18.061Z,102.63
2019-05-19T20:59:51.505Z,105.77
2019-05-19T21:02:24.118Z,111.93
2019-05-19T21:04:59.970Z,113.33
2019-05-19T21:07:33.733Z,127.00
2019-05-19T21:10:07.038Z,118.60
2019-05-19T21:12:41.000Z,128.63
2019-05-19T21:15:13.945Z,136.00
2019-05-19T21:17:47.448Z,126.70
2019-05-19T21:20:19.435Z,129.07
2019-05-19T21:22:54.765Z,122.60
2019-05-19T21:25:27.283Z,115.97
2019-05-19T21:27:59.560Z,124.27
2019-05-19T21:30:32.169Z,141.50
2019-05-19T21:33:05.834Z,132.37
2019-05-19T21:35:38.455Z,132.53
2019-05-19T21:38:10.974Z,149.60
2019-05-19T21:40:46.737Z,126.37
2019-05-19T21:43:19.776Z,115.33
2019-05-19T21:45:52.652Z,98.53
2019-05-19T21:48:34.930Z,103.13
2019-05-19T21:51:06.993Z,106.33
2019-05-19T21:53:39.739Z,117.97
2019-05-19T21:56:13.965Z,140.73
2019-05-19T21:58:52.193Z,120.93
2019-05-19T22:01:26.385Z,130.80
2019-05-19T22:03:59.132Z,135.80
2019-05-19T22:06:34.183Z,132.67
2019-05-19T22:09:09.380Z,138.17
2019-05-19T22:11:42.415Z,135.43
2019-05-19T22:14:18.591Z,117.70
2019-05-19T22:16:53.675Z,121.00
2019-05-19T22:19:27.705Z,92.57
2019-05-19T22:22:04.056Z,92.37
2019-05-19T22:24:38.424Z,71.63
2019-05-19T22:27:12.955Z,78.80
2019-05-19T22:29:48.830Z,78.40
2019-05-19T22:32:22.985Z,69.97
2019-05-19T22:34:58.117Z,65.97
2019-05-19T22:37:33.324Z,65.30
2019-05-19T22:40:07.892Z,79.37
2019-05-19T22:42:42.140Z,79.70
2019-05-19T22:45:17.728Z,78.17
2019-05-19T22:47:55.688Z,76.53
2019-05-19T22:50:31.100Z,75.07
2019-05-19T22:53:05.878Z,78.50
2019-05-19T22:55:39.332Z,71.70
2019-05-19T22:58:11.574Z,66.47
2019-05-19T23:00:51.072Z,78.17
2019-05-19T23:03:24.118Z,76.57
2019-05-19T23:05:58.099Z,73.17
2019-05-19T23:08:30.456Z,76.70
2019-05-19T23:11:02.581Z,86.47
2019-05-19T23:13:35.058Z,81.47
2019-05-19T23:16:08.140Z,82.10
2019-05-19T23:18:48.796Z,80.50
2019-05-19T23:21:21.419Z,68.00
2019-05-19T23:23:54.060Z,73.63
2019-05-19T23:26:27.242Z,79.27
2019-05-19T23:29:00.416Z,67.87
2019-05-19T23:31:33.332Z,64.07
2019-05-19T23:34:07.041Z,64.80
2019-05-19T23:36:40.813Z,61.20
2019-05-19T23:39:17.209Z,67.50
2019-05-19T23:41:49.628Z,67.43
2019-05-19T23:44:22.211Z,68.23
2019-05-19T23:46:54.757Z,62.80
2019-05-19T23:49:26.707Z,67.03
2019-05-19T23:52:03.233Z,60.53
2019-05-19T23:54:35.776Z,65.53
2019-05-19T23:57:08.634Z,63.33
2019-05-19T23:59:42.189Z,60.00
